Terminal Aerodrome Forecast
Issued by NWS

Home | Current Version | Previous Version | Text Only | Print | Product List | Glossary On
Versions: 1 2 3 4 5 6 7 8 9 10 11 12 13 14
825
FTPA31 PHFO 241829 AAA
TAFHKO
TAF AMD
PHKO 241829Z 2418/2518 25006KT P6SM VCSH BKN035 BKN060 BKN200
     FM242000 30010KT P6SM SCT060 BKN200
     FM250400 13005KT P6SM FEW060 SCT250=

USA.gov is the U.S. government's official web portal to all federal, state and local government web resources and services.